Time;durP1;ratioP1;P1;durP2;ratioP2;P2;SDS_P1;SDS_P2;PMS_P1;PMS_P2;Temp;Humidity;BMP_temperature;BMP_pressure;BME280_temperature;BME280_humidity;BME280_pressure;Samples;Min_cycle;Max_cycle;Signal;HPM_P1;HPM_P2
2022/09/24 00:01:35;;;;;;;;;;;;;;;12.41;100.00;101136.31;5267931;28;20028;-68
2022/09/24 00:04:10;;;;;;;20.10;15.93;;;;;;;12.30;100.00;101145.16;5261757;28;19969;-67
2022/09/24 00:06:47;;;;;;;22.65;16.05;;;;;;;12.30;100.00;101144.34;5249704;28;20025;-68
2022/09/24 00:09:20;;;;;;;20.92;16.35;;;;;;;12.28;100.00;101128.41;5265022;28;20528;-69
2022/09/24 00:11:52;;;;;;;21.38;16.60;;;;;;;12.25;100.00;101133.13;5270120;28;20064;-68
2022/09/24 00:14:23;;;;;;;21.92;15.82;;;;;;;12.26;100.00;101122.31;5263775;28;20029;-68
2022/09/24 00:16:55;;;;;;;19.55;16.45;;;;;;;12.23;100.00;101129.72;5266728;28;20033;-68
2022/09/24 00:19:26;;;;;;;20.58;16.23;;;;;;;12.30;100.00;101129.13;5265260;28;20024;-68
2022/09/24 00:21:57;;;;;;;20.33;16.38;;;;;;;12.24;100.00;101126.09;5264604;28;20135;-68
2022/09/24 00:27:18;;;;;;;20.52;15.85;;;;;;;12.23;100.00;101121.69;5264923;28;20028;-68
2022/09/24 00:29:50;;;;;;;21.05;16.23;;;;;;;12.22;100.00;101118.19;5267427;28;20573;-68
2022/09/24 00:32:23;;;;;;;20.25;15.88;;;;;;;12.28;100.00;101111.50;5256920;28;20115;-68
2022/09/24 00:34:54;;;;;;;20.63;16.75;;;;;;;12.25;100.00;101109.91;5251408;28;20029;-68
2022/09/24 00:37:27;;;;;;;21.85;17.08;;;;;;;12.32;100.00;101103.09;5263751;28;20059;-68
2022/09/24 00:39:58;;;;;;;19.98;16.45;;;;;;;12.21;100.00;101105.75;5272219;28;20462;-68
2022/09/24 00:42:31;;;;;;;21.15;16.65;;;;;;;12.24;100.00;101108.22;5256913;28;20028;-68
2022/09/24 00:45:03;;;;;;;20.58;15.77;;;;;;;12.29;100.00;101107.84;5282061;28;20377;-68
2022/09/24 00:47:37;;;;;;;19.88;16.83;;;;;;;12.25;100.00;101101.88;5261903;28;20550;-68
2022/09/24 00:50:19;;;;;;;19.25;15.55;;;;;;;12.33;100.00;101099.47;5259603;28;20886;-68
2022/09/24 00:53:04;;;;;;;20.13;15.60;;;;;;;12.38;100.00;101099.06;5265353;28;20060;-68
2022/09/24 00:55:37;;;;;;;19.27;15.88;;;;;;;12.39;100.00;101098.13;5264930;28;20035;-68
2022/09/24 00:58:09;;;;;;;20.63;15.63;;;;;;;12.32;100.00;101099.56;5265557;28;20025;-68
2022/09/24 01:00:44;;;;;;;19.13;15.75;;;;;;;12.26;100.00;101089.38;5261768;28;20044;-68
2022/09/24 01:03:20;;;;;;;18.45;14.20;;;;;;;12.25;100.00;101085.81;5268086;28;20124;-68
2022/09/24 01:05:51;;;;;;;17.35;14.68;;;;;;;12.32;100.00;101079.00;5259774;28;20033;-69
2022/09/24 01:08:23;;;;;;;18.38;15.20;;;;;;;12.26;100.00;101082.19;5264234;28;20099;-68
2022/09/24 01:11:27;;;;;;;19.73;15.30;;;;;;;12.27;100.00;101080.34;5275271;28;20047;-68
2022/09/24 01:14:02;;;;;;;16.90;13.90;;;;;;;12.26;100.00;101084.03;5261844;28;20935;-71
2022/09/24 01:16:56;;;;;;;18.50;13.70;;;;;;;12.27;100.00;101070.53;5273024;28;20032;-68
2022/09/24 01:20:06;;;;;;;17.83;14.68;;;;;;;12.26;100.00;101068.81;5262868;28;20358;-68
2022/09/24 01:22:45;;;;;;;19.15;14.52;;;;;;;12.26;100.00;101059.94;5249719;28;20033;-68
2022/09/24 01:25:50;;;;;;;18.70;14.98;;;;;;;12.27;100.00;101064.31;5263600;28;20055;-68
2022/09/24 01:28:34;;;;;;;16.80;13.48;;;;;;;12.25;100.00;101059.06;5253562;28;20040;-68
2022/09/24 01:31:14;;;;;;;19.73;14.60;;;;;;;12.22;100.00;101058.50;5263534;28;20036;-68
2022/09/24 01:33:52;;;;;;;18.45;14.27;;;;;;;12.25;100.00;101058.22;5255259;28;20181;-68
2022/09/24 01:36:25;;;;;;;18.63;14.57;;;;;;;12.29;100.00;101057.88;5252950;28;20030;-68
2022/09/24 01:38:58;;;;;;;18.20;15.02;;;;;;;12.26;100.00;101051.91;5237191;28;20059;-68
2022/09/24 01:41:33;;;;;;;17.17;14.43;;;;;;;12.23;100.00;101047.63;5253277;28;20035;-68
2022/09/24 01:44:06;;;;;;;;;;;;;;;12.32;100.00;101049.59;5261366;28;20051;-68
2022/09/24 01:46:39;;;;;;;16.63;13.38;;;;;;;12.33;100.00;101045.06;5251889;28;19924;-68
2022/09/24 01:49:11;;;;;;;16.63;13.65;;;;;;;12.34;100.00;101039.59;5258920;28;20041;-68
2022/09/24 01:52:00;;;;;;;17.15;14.18;;;;;;;12.31;100.00;101037.19;5262436;28;20438;-68
2022/09/24 01:54:35;;;;;;;17.73;14.25;;;;;;;12.30;100.00;101043.50;5265534;28;20129;-68
2022/09/24 01:57:11;;;;;;;18.35;13.50;;;;;;;12.26;100.00;101050.09;5259348;28;20670;-68
2022/09/24 01:59:48;;;;;;;17.08;13.57;;;;;;;12.31;100.00;101045.22;5260472;28;20020;-68
2022/09/24 02:02:55;;;;;;;17.20;14.05;;;;;;;12.26;100.00;101039.38;5261220;28;20097;-68
2022/09/24 02:05:46;;;;;;;18.88;13.90;;;;;;;12.25;100.00;101042.16;5249072;28;20048;-68
2022/09/24 02:08:25;;;;;;;16.25;13.18;;;;;;;12.20;100.00;101042.56;5263585;28;20081;-68
2022/09/24 02:11:26;;;;;;;19.08;14.32;;;;;;;12.21;100.00;101043.41;5263545;28;20040;-68
2022/09/24 02:14:12;;;;;;;18.98;14.38;;;;;;;12.22;100.00;101040.59;5257474;28;20143;-69
2022/09/24 02:16:47;;;;;;;20.50;14.27;;;;;;;12.27;100.00;101030.41;5254023;28;20474;-68
2022/09/24 02:19:24;;;;;;;21.08;16.02;;;;;;;12.32;100.00;101027.34;5269241;28;20043;-68
2022/09/24 02:21:56;;;;;;;22.50;16.45;;;;;;;12.25;100.00;101023.44;5271884;28;20051;-68
2022/09/24 02:24:44;;;;;;;17.92;14.57;;;;;;;12.25;100.00;101026.97;5284623;28;20038;-68
2022/09/24 02:27:17;;;;;;;19.98;15.32;;;;;;;12.22;100.00;101032.59;5275229;28;20031;-68
2022/09/24 02:29:49;;;;;;;19.58;15.85;;;;;;;12.22;100.00;101027.22;5269863;28;20044;-68
2022/09/24 02:32:23;;;;;;;19.10;14.85;;;;;;;12.26;100.00;101023.31;5267571;28;20020;-67
2022/09/24 02:34:58;;;;;;;;;;;;;;;12.27;100.00;101022.38;5283112;28;20039;-67
2022/09/24 02:37:34;;;;;;;20.33;16.98;;;;;;;12.24;100.00;101017.25;5281052;28;19959;-67
2022/09/24 02:40:08;;;;;;;22.02;16.45;;;;;;;12.34;100.00;101018.19;5283205;28;20106;-67
2022/09/24 02:42:41;;;;;;;20.75;16.33;;;;;;;12.24;100.00;101013.75;5275583;28;20033;-67
2022/09/24 02:45:13;;;;;;;23.92;17.60;;;;;;;12.22;100.00;101013.84;5278341;28;20453;-67
2022/09/24 02:47:44;;;;;;;21.20;16.67;;;;;;;12.21;100.00;101016.66;5277815;28;20040;-67
2022/09/24 02:50:15;;;;;;;22.58;17.58;;;;;;;12.20;100.00;101013.13;5274126;28;20047;-67
2022/09/24 02:52:47;;;;;;;21.65;17.52;;;;;;;12.18;100.00;101012.41;5275146;28;20023;-66
2022/09/24 02:55:18;;;;;;;23.80;18.33;;;;;;;12.19;100.00;101011.41;5279621;28;20027;-66
2022/09/24 02:57:49;;;;;;;23.83;17.52;;;;;;;12.21;100.00;101004.13;5292075;28;20056;-67
2022/09/24 03:00:20;;;;;;;25.27;18.80;;;;;;;12.20;100.00;101007.78;5272067;28;20044;-66
2022/09/24 03:02:52;;;;;;;25.75;19.98;;;;;;;12.24;100.00;101006.56;5271973;28;20028;-67
2022/09/24 03:05:24;;;;;;;26.90;19.50;;;;;;;12.18;100.00;101000.84;5285418;28;20081;-66
2022/09/24 03:07:57;;;;;;;29.58;21.55;;;;;;;12.14;100.00;101005.59;5269625;28;20025;-67
2022/09/24 03:10:28;;;;;;;29.25;22.48;;;;;;;12.18;100.00;101008.84;5267949;28;20024;-67
2022/09/24 03:13:00;;;;;;;29.38;22.02;;;;;;;12.21;100.00;101004.13;5269052;28;20078;-66
2022/09/24 03:15:31;;;;;;;32.58;24.05;;;;;;;12.22;100.00;100999.63;5266766;28;20457;-66
2022/09/24 03:18:02;;;;;;;33.42;23.95;;;;;;;12.14;100.00;100992.22;5264648;28;20029;-66
2022/09/24 03:20:34;;;;;;;31.65;23.83;;;;;;;12.21;100.00;101001.44;5266262;28;20037;-66
2022/09/24 03:23:05;;;;;;;32.47;24.50;;;;;;;12.14;100.00;101000.25;5245948;28;20032;-66
2022/09/24 03:25:37;;;;;;;38.00;26.63;;;;;;;12.12;100.00;100989.69;5270999;28;20261;-66
2022/09/24 03:28:08;;;;;;;36.22;27.33;;;;;;;12.16;100.00;100995.63;5268260;28;20075;-66
2022/09/24 03:33:46;;;;;;;38.55;29.35;;;;;;;12.17;100.00;100994.63;5265291;28;20421;-66
2022/09/24 03:36:24;;;;;;;37.85;27.88;;;;;;;12.18;100.00;100992.81;5267466;28;20123;-67
2022/09/24 03:38:56;;;;;;;38.38;28.77;;;;;;;12.19;100.00;100987.34;5274559;28;20029;-67
2022/09/24 03:41:28;;;;;;;40.92;29.90;;;;;;;12.12;100.00;100991.50;5274622;28;20032;-66
2022/09/24 03:43:59;;;;;;;39.80;28.67;;;;;;;12.19;100.00;100987.34;5258078;28;20445;-66
2022/09/24 03:46:30;;;;;;;40.05;28.58;;;;;;;12.18;100.00;100982.97;5271846;28;20072;-66
2022/09/24 03:49:02;;;;;;;40.40;30.48;;;;;;;12.12;100.00;100983.47;5258196;28;20043;-66
2022/09/24 03:51:33;;;;;;;40.45;30.05;;;;;;;12.11;100.00;100977.25;5264061;28;20044;-66
2022/09/24 03:54:04;;;;;;;40.60;29.35;;;;;;;12.12;100.00;100970.94;5252421;28;20496;-66
2022/09/24 03:56:35;;;;;;;42.25;30.05;;;;;;;12.12;100.00;100970.13;5272410;28;20032;-66
2022/09/24 03:59:09;;;;;;;39.60;28.70;;;;;;;12.15;100.00;100977.88;5269854;28;20031;-66
2022/09/24 04:01:40;;;;;;;42.78;30.15;;;;;;;12.12;100.00;100973.63;5262727;28;20070;-66
2022/09/24 04:04:15;;;;;;;39.50;30.20;;;;;;;12.25;100.00;100969.94;5278422;28;20157;-66
2022/09/24 04:06:46;;;;;;;37.55;28.00;;;;;;;12.24;100.00;100962.91;5264975;28;20515;-66
2022/09/24 04:09:17;;;;;;;38.45;28.17;;;;;;;12.14;100.00;100969.00;5258831;28;20025;-67
2022/09/24 04:11:50;;;;;;;39.92;28.67;;;;;;;12.11;100.00;100965.72;5260570;28;20036;-66
2022/09/24 04:14:21;;;;;;;41.40;28.08;;;;;;;12.12;100.00;100962.09;5257068;28;20028;-66
2022/09/24 04:16:53;;;;;;;37.20;27.65;;;;;;;12.12;100.00;100960.25;5253949;28;20102;-66
2022/09/24 04:19:25;;;;;;;38.03;28.25;;;;;;;12.19;100.00;100957.06;5257383;28;20037;-66
2022/09/24 04:21:56;;;;;;;39.08;27.80;;;;;;;12.10;100.00;100953.31;5267715;28;20039;-66
2022/09/24 04:24:28;;;;;;;36.50;27.05;;;;;;;12.14;100.00;100954.78;5253008;28;20036;-66
2022/09/24 04:26:59;;;;;;;37.47;26.48;;;;;;;12.08;100.00;100960.59;5256863;28;20032;-66
2022/09/24 04:29:30;;;;;;;38.83;27.65;;;;;;;12.09;100.00;100956.97;5251299;28;20063;-67
2022/09/24 04:32:02;;;;;;;38.38;28.30;;;;;;;12.10;100.00;100950.63;5261971;28;20048;-66
2022/09/24 04:34:33;;;;;;;36.72;25.55;;;;;;;12.10;100.00;100948.84;5255418;28;20032;-66
2022/09/24 04:37:04;;;;;;;39.42;27.60;;;;;;;12.09;100.00;100959.66;5261169;28;20386;-66
2022/09/24 04:39:36;;;;;;;33.72;26.13;;;;;;;12.07;100.00;100950.91;5235153;28;21664;-66
2022/09/24 04:42:07;;;;;;;33.90;26.05;;;;;;;12.07;100.00;100953.56;5257524;28;20163;-67
2022/09/24 04:44:39;;;;;;;36.80;25.83;;;;;;;12.10;100.00;100955.97;5266636;28;20046;-66
2022/09/24 04:47:10;;;;;;;35.03;25.77;;;;;;;12.08;100.00;100960.59;5257305;28;20049;-66
2022/09/24 04:49:44;;;;;;;32.80;24.65;;;;;;;12.05;100.00;100959.03;5260185;28;20084;-66
2022/09/24 04:52:16;;;;;;;34.22;25.52;;;;;;;12.20;100.00;100958.78;5265014;28;20024;-66
2022/09/24 04:54:47;;;;;;;36.70;26.23;;;;;;;12.08;100.00;100955.25;5254611;28;20110;-66
2022/09/24 04:57:18;;;;;;;35.42;25.25;;;;;;;12.10;100.00;100950.63;5252171;28;20115;-66
2022/09/24 04:59:50;;;;;;;33.63;24.98;;;;;;;12.06;100.00;100955.41;5258772;28;20036;-66
2022/09/24 05:02:22;;;;;;;37.75;26.05;;;;;;;12.08;100.00;100952.59;5253952;28;20037;-66
2022/09/24 05:04:54;;;;;;;34.42;24.73;;;;;;;12.10;100.00;100950.63;5265218;28;20442;-66
2022/09/24 05:07:25;;;;;;;35.90;25.67;;;;;;;12.08;100.00;100949.91;5264057;28;20077;-66
2022/09/24 05:09:56;;;;;;;35.17;25.38;;;;;;;12.09;100.00;100949.78;5280394;28;20036;-66
2022/09/24 05:12:28;;;;;;;34.75;24.30;;;;;;;12.08;100.00;100955.25;5270022;28;20651;-66
2022/09/24 05:15:00;;;;;;;34.58;25.00;;;;;;;12.08;100.00;100957.94;5259675;28;20028;-66
2022/09/24 05:17:31;;;;;;;32.53;23.10;;;;;;;12.15;100.00;100962.66;5264331;28;20023;-66
2022/09/24 05:20:02;;;;;;;33.45;24.58;;;;;;;12.22;100.00;100954.16;5261737;28;20493;-67
2022/09/24 05:22:35;;;;;;;29.10;21.98;;;;;;;12.14;100.00;100960.97;5261179;28;20051;-67
2022/09/24 05:25:06;;;;;;;32.05;22.90;;;;;;;12.16;100.00;100964.38;5262083;28;20594;-67
2022/09/24 05:27:46;;;;;;;36.60;22.67;;;;;;;12.16;100.00;100963.53;5262650;28;20021;-67
2022/09/24 05:30:20;;;;;;;29.20;21.90;;;;;;;12.14;100.00;100957.47;5260216;28;20078;-67
2022/09/24 05:32:51;;;;;;;29.13;20.55;;;;;;;12.22;100.00;100963.03;5257465;28;20118;-67
2022/09/24 05:35:23;;;;;;;27.48;20.55;;;;;;;12.12;100.00;100962.94;5248526;28;20052;-66
2022/09/24 05:37:54;;;;;;;27.65;20.38;;;;;;;12.22;100.00;100962.19;5246516;28;20053;-67
2022/09/24 05:43:18;;;;;;;24.92;18.75;;;;;;;12.11;100.00;100965.72;5262119;28;20037;-66
2022/09/24 05:45:49;;;;;;;27.50;20.60;;;;;;;12.13;100.00;100964.63;5260279;28;20028;-67
2022/09/24 05:48:20;;;;;;;25.67;18.88;;;;;;;12.11;100.00;100966.56;5261524;28;20505;-67
2022/09/24 05:50:54;;;;;;;26.08;19.23;;;;;;;12.08;100.00;100971.31;5260282;28;20037;-66
2022/09/24 05:53:25;;;;;;;25.20;18.67;;;;;;;12.20;100.00;100964.97;5259436;28;20480;-66
2022/09/24 05:55:57;;;;;;;27.83;20.17;;;;;;;12.13;100.00;100969.13;5258635;28;20028;-67
2022/09/24 05:58:28;;;;;;;26.30;19.83;;;;;;;12.11;100.00;100976.41;5259339;28;20016;-67
2022/09/24 06:01:03;;;;;;;25.80;19.17;;;;;;;12.11;100.00;100971.06;5258794;28;20383;-67
2022/09/24 06:03:34;;;;;;;28.45;20.33;;;;;;;12.16;100.00;100976.91;5261870;28;20033;-66
2022/09/24 06:06:06;;;;;;;27.02;20.00;;;;;;;12.09;100.00;100978.38;5265545;28;20459;-66
2022/09/24 06:08:37;;;;;;;29.15;20.23;;;;;;;12.08;100.00;100982.00;5279437;28;20031;-66
2022/09/24 06:11:09;;;;;;;26.90;19.52;;;;;;;12.07;100.00;100977.66;5274330;28;20067;-66
2022/09/24 06:13:41;;;;;;;28.08;20.73;;;;;;;12.15;100.00;100978.72;5283938;28;20029;-66
2022/09/24 06:16:12;;;;;;;29.10;20.05;;;;;;;12.15;100.00;100983.22;5275443;28;20032;-67
2022/09/24 06:18:44;;;;;;;28.38;21.45;;;;;;;12.08;100.00;100988.22;5264996;28;20467;-67
2022/09/24 06:21:18;;;;;;;26.77;19.42;;;;;;;12.11;100.00;100979.09;5268685;28;20031;-67
2022/09/24 06:23:49;;;;;;;;;;;;;;;12.15;100.00;100991.25;5277919;28;20063;-66
2022/09/24 06:26:21;;;;;;;27.58;20.35;;;;;;;12.23;100.00;100980.75;5279509;28;20378;-66
2022/09/24 06:28:52;;;;;;;28.30;20.80;;;;;;;12.11;100.00;100987.13;5283556;28;20043;-67
2022/09/24 06:31:23;;;;;;;30.25;21.00;;;;;;;12.10;100.00;100985.41;5276798;28;20364;-66
2022/09/24 06:33:55;;;;;;;31.55;20.90;;;;;;;12.12;100.00;100986.16;5281422;28;20093;-67
2022/09/24 06:36:26;;;;;;;26.08;19.90;;;;;;;12.13;100.00;100990.50;5280556;28;20864;-67
2022/09/24 06:38:58;;;;;;;27.25;19.63;;;;;;;12.14;100.00;100994.91;5295209;28;20024;-67
2022/09/24 06:41:29;;;;;;;28.05;19.88;;;;;;;12.13;100.00;100994.03;5285405;28;20040;-67
2022/09/24 06:44:00;;;;;;;27.30;20.20;;;;;;;12.12;100.00;100989.69;5276762;28;20025;-67
2022/09/24 06:46:32;;;;;;;28.33;20.45;;;;;;;12.19;100.00;100991.84;5273924;28;20464;-67
2022/09/24 06:49:03;;;;;;;27.35;20.02;;;;;;;12.16;100.00;100998.31;5276267;28;20054;-67
2022/09/24 06:51:34;;;;;;;28.70;20.67;;;;;;;12.16;100.00;101001.81;5258696;28;20032;-67
2022/09/24 06:54:06;;;;;;;25.88;20.02;;;;;;;12.17;100.00;100997.31;5265252;28;20496;-67
2022/09/24 06:56:37;;;;;;;27.77;20.63;;;;;;;12.20;100.00;101002.44;5268265;28;20032;-67
2022/09/24 06:59:08;;;;;;;30.27;20.50;;;;;;;12.16;100.00;100992.94;5266820;28;20035;-67
2022/09/24 07:01:40;;;;;;;26.98;21.05;;;;;;;12.24;100.00;100995.84;5269697;28;20223;-67
2022/09/24 07:04:11;;;;;;;26.65;20.40;;;;;;;12.29;100.00;101006.16;5256788;28;20036;-67
2022/09/24 07:09:32;;;;;;;30.83;21.65;;;;;;;12.19;100.00;101006.06;5280128;28;20387;-67
2022/09/24 07:12:07;;;;;;;29.42;21.25;;;;;;;12.20;100.00;101005.09;5269655;28;20033;-66
2022/09/24 07:14:38;;;;;;;28.02;20.52;;;;;;;12.20;100.00;101010.47;5280255;28;20033;-67
2022/09/24 07:17:09;;;;;;;30.92;21.30;;;;;;;12.22;100.00;101011.19;5269956;28;20477;-67
2022/09/24 07:19:41;;;;;;;28.52;21.27;;;;;;;12.32;100.00;101009.44;5272460;28;20052;-67
2022/09/24 07:22:12;;;;;;;32.00;22.95;;;;;;;12.22;100.00;101008.50;5255993;28;20697;-67
2022/09/24 07:24:44;;;;;;;30.60;21.95;;;;;;;12.25;100.00;101004.72;5259628;28;20070;-67
2022/09/24 07:27:16;;;;;;;34.58;24.05;;;;;;;12.29;100.00;101016.88;5288401;28;20024;-67
2022/09/24 07:29:47;;;;;;;33.55;23.80;;;;;;;12.26;100.00;101009.09;5292179;28;20380;-67
2022/09/24 07:32:19;;;;;;;31.60;23.75;;;;;;;12.25;100.00;101015.41;5284808;28;20042;-67
2022/09/24 07:34:53;;;;;;;31.20;23.05;;;;;;;12.28;100.00;101018.69;5293524;28;20020;-67
2022/09/24 07:37:24;;;;;;;34.50;24.25;;;;;;;12.31;100.00;101014.91;5280770;28;20097;-67
2022/09/24 07:39:55;;;;;;;34.65;24.85;;;;;;;12.25;100.00;101020.78;5290642;28;20032;-67
2022/09/24 07:42:27;;;;;;;35.08;25.40;;;;;;;12.25;100.00;101024.28;5291170;28;20118;-67
2022/09/24 07:44:59;;;;;;;37.95;25.83;;;;;;;12.25;100.00;101031.47;5289329;28;20031;-67
2022/09/24 07:47:31;;;;;;;35.85;26.05;;;;;;;12.28;100.00;101031.22;5266064;28;20046;-67
2022/09/24 07:50:03;;;;;;;38.97;26.50;;;;;;;12.26;100.00;101034.03;5291303;28;20027;-67
2022/09/24 07:52:34;;;;;;;37.90;26.17;;;;;;;12.25;100.00;101026.97;5286951;28;20077;-67
2022/09/24 07:55:06;;;;;;;39.67;26.13;;;;;;;12.24;100.00;101035.97;5290775;28;20036;-67
2022/09/24 07:57:38;;;;;;;38.42;25.95;;;;;;;12.26;100.00;101033.19;5287843;28;20026;-67
2022/09/24 08:00:11;;;;;;;37.08;26.40;;;;;;;12.35;100.00;101035.13;5285971;28;20481;-67
2022/09/24 08:02:47;;;;;;;43.22;28.42;;;;;;;12.30;100.00;101035.47;5283856;28;20135;-67
2022/09/24 08:05:18;;;;;;;40.60;27.25;;;;;;;12.32;100.00;101033.53;5290804;28;20645;-67
2022/09/24 08:07:54;;;;;;;38.88;27.27;;;;;;;12.40;100.00;101034.75;5289575;28;20055;-67
2022/09/24 08:10:27;;;;;;;40.10;27.88;;;;;;;12.41;100.00;101037.28;5295575;28;20510;-67
2022/09/24 08:13:01;;;;;;;43.10;28.35;;;;;;;12.45;100.00;101038.75;5294246;28;20024;-67
2022/09/24 08:15:32;;;;;;;40.25;27.60;;;;;;;12.49;100.00;101042.88;5287641;28;20272;-67
2022/09/24 08:18:04;;;;;;;38.40;27.23;;;;;;;12.44;100.00;101044.22;5283101;28;20019;-67
2022/09/24 08:20:37;;;;;;;39.92;27.15;;;;;;;12.44;100.00;101055.75;5289527;28;20028;-67
2022/09/24 08:23:09;;;;;;;38.13;27.30;;;;;;;12.52;100.00;101050.66;5289283;28;20031;-67
2022/09/24 08:25:40;;;;;;;40.67;27.85;;;;;;;12.49;100.00;101053.56;5289147;28;20063;-67
2022/09/24 08:28:12;;;;;;;40.95;29.23;;;;;;;12.49;100.00;101052.72;5283790;28;20161;-67
2022/09/24 08:30:43;;;;;;;39.80;27.38;;;;;;;12.53;100.00;101051.50;5292311;28;20034;-67
2022/09/24 08:33:14;;;;;;;41.92;27.63;;;;;;;12.50;100.00;101054.41;5278044;28;20037;-67
2022/09/24 08:35:46;;;;;;;36.90;27.10;;;;;;;12.47;100.00;101049.31;5279884;28;20032;-67
2022/09/24 08:38:19;;;;;;;37.58;26.63;;;;;;;12.54;100.00;101056.72;5291159;28;20055;-66
2022/09/24 08:41:13;;;;;;;38.28;27.15;;;;;;;12.50;100.00;101063.31;5288721;28;20055;-67
2022/09/24 08:43:53;;;;;;;38.92;27.58;;;;;;;12.51;100.00;101065.00;5292959;28;20382;-67
2022/09/24 08:49:35;;;;;;;40.40;25.33;;;;;;;12.53;100.00;101067.56;5291497;28;20052;-67
2022/09/24 08:52:18;;;;;;;35.08;24.83;;;;;;;12.59;100.00;101067.06;5277053;28;20505;-66
2022/09/24 08:54:53;;;;;;;35.97;25.67;;;;;;;12.59;100.00;101075.09;5296379;28;20527;-67
2022/09/24 08:57:25;;;;;;;38.95;26.17;;;;;;;12.60;100.00;101068.78;5282289;28;20024;-67
2022/09/24 08:59:56;;;;;;;40.25;26.92;;;;;;;12.65;100.00;101074.56;5287716;28;20378;-66
2022/09/24 09:02:35;;;;;;;38.70;26.73;;;;;;;12.79;100.00;101083.31;5286572;28;20466;-68
2022/09/24 09:05:12;;;;;;;39.78;26.75;;;;;;;12.70;100.00;101079.56;5289530;28;20024;-67
2022/09/24 09:08:08;;;;;;;36.38;26.50;;;;;;;12.81;100.00;101076.88;5286180;28;20060;-67
2022/09/24 09:10:42;;;;;;;39.53;27.48;;;;;;;12.73;100.00;101080.19;5288310;28;20511;-67
2022/09/24 09:13:22;;;;;;;;;;;;;;;12.74;100.00;101081.88;5288471;28;20040;-67
2022/09/24 09:16:09;;;;;;;37.22;26.88;;;;;;;12.79;100.00;101088.66;5289694;28;19922;-67
2022/09/24 09:18:45;;;;;;;39.58;27.67;;;;;;;12.78;100.00;101081.63;5283062;28;20027;-68
2022/09/24 09:21:26;;;;;;;46.30;28.67;;;;;;;12.77;100.00;101082.59;5289043;28;20032;-68
2022/09/24 09:24:01;;;;;;;42.10;29.00;;;;;;;12.73;100.00;101080.19;5290360;28;20034;-68
2022/09/24 09:26:33;;;;;;;49.03;31.67;;;;;;;12.77;100.00;101095.97;5288617;28;20406;-67
2022/09/24 09:29:08;;;;;;;44.25;29.70;;;;;;;12.79;100.00;101083.31;5285139;28;20081;-67
2022/09/24 09:31:58;;;;;;;43.05;29.13;;;;;;;12.78;100.00;101084.31;5286383;28;20042;-68
2022/09/24 09:34:39;;;;;;;42.00;28.35;;;;;;;12.91;100.00;101088.50;5289165;28;20072;-67
2022/09/24 09:37:18;;;;;;;47.22;31.15;;;;;;;12.84;100.00;101089.97;5292380;28;20532;-67
2022/09/24 09:40:12;;;;;;;51.20;31.80;;;;;;;12.84;100.00;101081.94;5285523;28;20036;-67
2022/09/24 09:42:44;;;;;;;48.10;30.90;;;;;;;12.83;100.00;101084.75;5288025;28;20797;-67
2022/09/24 09:45:31;;;;;;;47.80;31.08;;;;;;;12.83;100.00;101087.44;5292986;28;20031;-67
2022/09/24 09:48:03;;;;;;;43.83;28.88;;;;;;;12.85;100.00;101081.00;5285923;28;20048;-67
2022/09/24 09:50:44;;;;;;;46.78;30.48;;;;;;;12.87;100.00;101086.22;5285438;28;20088;-67
2022/09/24 09:53:26;;;;;;;48.88;31.73;;;;;;;12.91;100.00;101085.00;5286450;28;20028;-67
2022/09/24 09:56:03;;;;;;;49.38;32.58;;;;;;;12.88;100.00;101082.56;5293468;28;20036;-67
2022/09/24 09:58:38;;;;;;;49.38;32.28;;;;;;;12.93;100.00;101080.34;5288068;28;20458;-67
2022/09/24 10:01:13;;;;;;;46.63;31.95;;;;;;;12.90;100.00;101078.75;5283766;28;20047;-67
2022/09/24 10:03:48;;;;;;;;;;;;;;;12.97;100.00;101086.31;5290648;28;20036;-67
2022/09/24 10:06:26;;;;;;;;;;;;;;;13.01;100.00;101087.75;5290389;28;20288;-67
2022/09/24 10:09:21;;;;;;;44.95;29.08;;;;;;;13.02;100.00;101084.09;5288405;28;19927;-67
2022/09/24 10:11:52;;;;;;;45.72;29.35;;;;;;;13.10;100.00;101093.19;5285122;28;20032;-67
2022/09/24 10:14:24;;;;;;;46.28;30.08;;;;;;;13.08;100.00;101089.78;5283737;28;20032;-67
2022/09/24 10:17:04;;;;;;;42.90;29.15;;;;;;;13.06;100.00;101090.88;5290167;28;20036;-67
2022/09/24 10:19:37;;;;;;;42.80;29.23;;;;;;;13.08;100.00;101089.78;5285450;28;20063;-67
2022/09/24 10:22:17;;;;;;;46.40;30.15;;;;;;;13.08;100.00;101081.75;5286429;28;20910;-66
2022/09/24 10:24:50;;;;;;;46.20;29.58;;;;;;;13.16;100.00;101081.13;5282085;28;20363;-67
2022/09/24 10:27:34;;;;;;;43.88;29.73;;;;;;;13.12;100.00;101077.84;5267259;28;20020;-67
2022/09/24 10:30:33;;;;;;;40.70;29.95;;;;;;;13.17;100.00;101081.97;5273025;28;20040;-66
2022/09/24 10:33:07;;;;;;;44.83;30.00;;;;;;;13.18;100.00;101076.47;5286241;28;20032;-66
2022/09/24 10:35:39;;;;;;;47.22;31.75;;;;;;;13.23;100.00;101076.09;5271355;28;20032;-67
2022/09/24 10:38:19;;;;;;;47.05;32.28;;;;;;;13.25;100.00;101074.13;5290349;28;20024;-67
2022/09/24 10:40:51;;;;;;;46.47;32.20;;;;;;;13.29;100.00;101081.78;5288464;28;20030;-67
2022/09/24 10:43:22;;;;;;;46.63;31.88;;;;;;;13.37;100.00;101081.19;5287274;28;20394;-67
2022/09/24 10:46:35;;;;;;;45.85;30.58;;;;;;;13.41;100.00;101082.63;5287487;28;20719;-66
2022/09/24 10:49:16;;;;;;;41.92;30.33;;;;;;;13.49;100.00;101087.31;5208012;28;20057;-66
2022/09/24 10:51:57;;;;;;;38.90;28.80;;;;;;;13.47;100.00;101089.28;5205304;28;20066;-65
2022/09/24 10:54:48;;;;;;;37.40;27.77;;;;;;;13.51;100.00;101096.09;5238117;28;20072;-65
2022/09/24 10:57:57;;;;;;;40.15;28.98;;;;;;;13.49;100.00;101092.69;5265576;28;20197;-65
2022/09/24 11:00:53;;;;;;;40.65;30.00;;;;;;;13.58;100.00;101091.91;5266650;28;20032;-65
2022/09/24 11:03:49;;;;;;;38.25;27.52;;;;;;;13.69;100.00;101096.31;5262047;28;20033;-65
2022/09/24 11:06:38;;;;;;;37.95;27.50;;;;;;;13.60;100.00;101103.34;5246337;28;20051;-65
2022/09/24 11:09:29;;;;;;;41.22;28.60;;;;;;;13.64;100.00;101101.25;5275963;28;20093;-65
2022/09/24 11:12:20;;;;;;;36.28;27.27;;;;;;;13.66;100.00;101108.19;5291959;28;20028;-65
2022/09/24 11:15:22;;;;;;;39.58;27.55;;;;;;;13.70;100.00;101106.09;5287606;28;20020;-65
2022/09/24 11:18:08;;;;;;;38.03;27.25;;;;;;;13.65;100.00;101100.25;5266479;28;20036;-65
2022/09/24 11:21:15;;;;;;;36.97;26.30;;;;;;;13.72;100.00;101104.13;5276446;28;20561;-65
2022/09/24 11:23:52;;;;;;;34.90;26.40;;;;;;;13.75;100.00;101103.88;5275393;28;20029;-66
2022/09/24 11:26:23;;;;;;;35.42;24.60;;;;;;;13.77;100.00;101101.03;5275841;28;20020;-66
2022/09/24 11:29:13;;;;;;;31.33;23.95;;;;;;;13.93;100.00;101107.63;5282909;28;20037;-66
2022/09/24 11:32:03;;;;;;;33.33;24.15;;;;;;;13.92;100.00;101110.44;5257851;28;20528;-67
2022/09/24 11:34:58;;;;;;;28.25;22.05;;;;;;;13.92;100.00;101113.13;5288827;28;20030;-67
2022/09/24 11:37:52;;;;;;;25.98;20.55;;;;;;;14.01;100.00;101108.81;5287052;28;20043;-66
2022/09/24 11:40:34;;;;;;;26.00;19.03;;;;;;;13.91;100.00;101104.22;5281573;28;20024;-67
2022/09/24 11:43:24;;;;;;;22.77;18.33;;;;;;;13.97;100.00;101108.22;5266967;28;20079;-67
2022/09/24 11:46:16;;;;;;;21.38;17.48;;;;;;;13.93;100.00;101107.63;5277942;28;20128;-66
2022/09/24 11:48:50;;;;;;;22.00;17.05;;;;;;;14.04;100.00;101114.75;5276466;28;20041;-64
2022/09/24 11:51:49;;;;;;;22.30;16.98;;;;;;;14.04;100.00;101108.56;5271840;28;20514;-65
2022/09/24 11:54:38;;;;;;;19.52;15.13;;;;;;;14.01;100.00;101108.81;5265894;28;20035;-66
2022/09/24 11:57:29;;;;;;;18.13;13.75;;;;;;;13.99;100.00;101108.09;5279750;28;20067;-66
2022/09/24 12:00:11;;;;;;;16.77;12.75;;;;;;;13.95;100.00;101103.97;5278610;28;20036;-66